sensor_id;sensor_type;location;lat;lon;timestamp;temperature;humidity
74368;DHT22;64991;41.090;-8.118;2024-02-26T00:01:10;17.30;85.70
74368;DHT22;64991;41.090;-8.118;2024-02-26T00:06:13;17.30;85.70
74368;DHT22;64991;41.090;-8.118;2024-02-26T00:11:17;17.30;85.60
74368;DHT22;64991;41.090;-8.118;2024-02-26T00:16:22;17.30;85.80
74368;DHT22;64991;41.090;-8.118;2024-02-26T00:21:26;17.30;85.70
74368;DHT22;64991;41.090;-8.118;2024-02-26T00:26:29;17.30;85.80
74368;DHT22;64991;41.090;-8.118;2024-02-26T00:31:34;17.30;85.60
74368;DHT22;64991;41.090;-8.118;2024-02-26T00:36:39;17.30;85.50
74368;DHT22;64991;41.090;-8.118;2024-02-26T00:41:43;17.30;85.60
74368;DHT22;64991;41.090;-8.118;2024-02-26T00:46:48;17.20;85.70
74368;DHT22;64991;41.090;-8.118;2024-02-26T00:51:52;17.30;85.50
74368;DHT22;64991;41.090;-8.118;2024-02-26T00:56:55;17.20;85.80
74368;DHT22;64991;41.090;-8.118;2024-02-26T01:02:00;17.20;85.50
74368;DHT22;64991;41.090;-8.118;2024-02-26T01:07:06;17.30;85.60
74368;DHT22;64991;41.090;-8.118;2024-02-26T01:12:09;17.20;85.60
74368;DHT22;64991;41.090;-8.118;2024-02-26T01:17:15;17.20;85.70
74368;DHT22;64991;41.090;-8.118;2024-02-26T01:22:19;17.20;85.60
74368;DHT22;64991;41.090;-8.118;2024-02-26T01:27:22;17.30;85.60
74368;DHT22;64991;41.090;-8.118;2024-02-26T01:32:30;17.20;85.50
74368;DHT22;64991;41.090;-8.118;2024-02-26T01:37:34;17.20;85.60
74368;DHT22;64991;41.090;-8.118;2024-02-26T01:42:38;17.30;85.50
74368;DHT22;64991;41.090;-8.118;2024-02-26T01:47:44;17.30;85.40
74368;DHT22;64991;41.090;-8.118;2024-02-26T01:52:48;17.20;85.60
74368;DHT22;64991;41.090;-8.118;2024-02-26T01:57:53;17.20;85.70
74368;DHT22;64991;41.090;-8.118;2024-02-26T02:02:58;17.20;85.70
74368;DHT22;64991;41.090;-8.118;2024-02-26T02:08:02;17.20;85.50
74368;DHT22;64991;41.090;-8.118;2024-02-26T02:13:06;17.20;85.60
74368;DHT22;64991;41.090;-8.118;2024-02-26T02:18:12;17.20;85.50
74368;DHT22;64991;41.090;-8.118;2024-02-26T02:23:17;17.10;85.50
74368;DHT22;64991;41.090;-8.118;2024-02-26T02:28:21;17.20;85.50
74368;DHT22;64991;41.090;-8.118;2024-02-26T02:33:25;17.20;85.40
74368;DHT22;64991;41.090;-8.118;2024-02-26T02:38:31;17.20;85.50
74368;DHT22;64991;41.090;-8.118;2024-02-26T02:43:35;17.20;85.20
74368;DHT22;64991;41.090;-8.118;2024-02-26T02:48:39;17.20;85.50
74368;DHT22;64991;41.090;-8.118;2024-02-26T02:53:46;17.30;85.50
74368;DHT22;64991;41.090;-8.118;2024-02-26T02:58:50;17.20;85.30
74368;DHT22;64991;41.090;-8.118;2024-02-26T03:03:53;17.10;85.30
74368;DHT22;64991;41.090;-8.118;2024-02-26T03:08:58;17.10;85.40
74368;DHT22;64991;41.090;-8.118;2024-02-26T03:14:02;17.20;85.40
74368;DHT22;64991;41.090;-8.118;2024-02-26T03:19:06;17.20;85.30
74368;DHT22;64991;41.090;-8.118;2024-02-26T03:24:12;17.20;85.40
74368;DHT22;64991;41.090;-8.118;2024-02-26T03:29:16;17.20;85.30
74368;DHT22;64991;41.090;-8.118;2024-02-26T03:34:20;17.10;85.20
74368;DHT22;64991;41.090;-8.118;2024-02-26T03:39:25;17.20;85.20
74368;DHT22;64991;41.090;-8.118;2024-02-26T03:44:29;17.20;85.30
74368;DHT22;64991;41.090;-8.118;2024-02-26T03:49:32;17.10;85.40
74368;DHT22;64991;41.090;-8.118;2024-02-26T03:54:38;17.20;85.30
74368;DHT22;64991;41.090;-8.118;2024-02-26T03:59:41;17.20;85.30
74368;DHT22;64991;41.090;-8.118;2024-02-26T04:04:45;17.10;85.40
74368;DHT22;64991;41.090;-8.118;2024-02-26T04:09:51;17.10;85.20
74368;DHT22;64991;41.090;-8.118;2024-02-26T04:14:54;17.10;85.10
74368;DHT22;64991;41.090;-8.118;2024-02-26T04:19:58;17.10;85.00
74368;DHT22;64991;41.090;-8.118;2024-02-26T04:25:03;17.10;85.00
74368;DHT22;64991;41.090;-8.118;2024-02-26T04:30:08;17.10;85.00
74368;DHT22;64991;41.090;-8.118;2024-02-26T04:35:12;17.10;84.90
74368;DHT22;64991;41.090;-8.118;2024-02-26T04:40:17;17.10;85.10
74368;DHT22;64991;41.090;-8.118;2024-02-26T04:45:20;17.10;85.10
74368;DHT22;64991;41.090;-8.118;2024-02-26T04:50:24;17.10;85.00
74368;DHT22;64991;41.090;-8.118;2024-02-26T04:55:29;17.10;85.00
74368;DHT22;64991;41.090;-8.118;2024-02-26T05:00:33;17.10;84.80
74368;DHT22;64991;41.090;-8.118;2024-02-26T05:05:36;17.00;84.80
74368;DHT22;64991;41.090;-8.118;2024-02-26T05:10:41;17.10;84.90
74368;DHT22;64991;41.090;-8.118;2024-02-26T05:15:45;17.10;84.70
74368;DHT22;64991;41.090;-8.118;2024-02-26T05:20:51;17.10;84.70
74368;DHT22;64991;41.090;-8.118;2024-02-26T05:25:56;17.00;84.50
74368;DHT22;64991;41.090;-8.118;2024-02-26T05:30:59;17.00;84.90
74368;DHT22;64991;41.090;-8.118;2024-02-26T05:36:03;17.00;84.60
74368;DHT22;64991;41.090;-8.118;2024-02-26T05:41:09;17.00;84.40
74368;DHT22;64991;41.090;-8.118;2024-02-26T05:46:12;17.00;84.80
74368;DHT22;64991;41.090;-8.118;2024-02-26T05:51:17;17.00;84.70
74368;DHT22;64991;41.090;-8.118;2024-02-26T05:56:22;17.00;84.50
74368;DHT22;64991;41.090;-8.118;2024-02-26T06:01:26;17.00;84.30
74368;DHT22;64991;41.090;-8.118;2024-02-26T06:06:29;17.00;84.50
74368;DHT22;64991;41.090;-8.118;2024-02-26T06:11:35;17.00;84.40
74368;DHT22;64991;41.090;-8.118;2024-02-26T06:16:38;17.00;84.20
74368;DHT22;64991;41.090;-8.118;2024-02-26T06:21:42;17.00;84.40
74368;DHT22;64991;41.090;-8.118;2024-02-26T06:26:47;16.90;84.60
74368;DHT22;64991;41.090;-8.118;2024-02-26T06:31:51;17.00;84.40
74368;DHT22;64991;41.090;-8.118;2024-02-26T06:36:54;17.00;84.30
74368;DHT22;64991;41.090;-8.118;2024-02-26T06:41:59;17.00;84.40
74368;DHT22;64991;41.090;-8.118;2024-02-26T06:47:03;17.00;84.40
74368;DHT22;64991;41.090;-8.118;2024-02-26T06:52:07;17.00;84.50
74368;DHT22;64991;41.090;-8.118;2024-02-26T06:57:12;16.90;84.40
74368;DHT22;64991;41.090;-8.118;2024-02-26T07:02:16;17.00;84.30
74368;DHT22;64991;41.090;-8.118;2024-02-26T07:07:19;17.00;84.50
74368;DHT22;64991;41.090;-8.118;2024-02-26T07:12:25;17.00;84.30
74368;DHT22;64991;41.090;-8.118;2024-02-26T07:17:29;17.00;84.40
74368;DHT22;64991;41.090;-8.118;2024-02-26T07:22:33;17.00;84.00
74368;DHT22;64991;41.090;-8.118;2024-02-26T07:27:38;17.00;84.10
74368;DHT22;64991;41.090;-8.118;2024-02-26T07:32:42;17.00;84.00
74368;DHT22;64991;41.090;-8.118;2024-02-26T07:37:51;16.90;83.90
74368;DHT22;64991;41.090;-8.118;2024-02-26T07:42:56;16.90;84.10
74368;DHT22;64991;41.090;-8.118;2024-02-26T07:48:00;17.00;84.00
74368;DHT22;64991;41.090;-8.118;2024-02-26T07:53:04;16.90;83.90
74368;DHT22;64991;41.090;-8.118;2024-02-26T07:58:09;16.90;83.90
74368;DHT22;64991;41.090;-8.118;2024-02-26T08:03:12;16.90;84.10
74368;DHT22;64991;41.090;-8.118;2024-02-26T08:08:18;16.90;84.00
74368;DHT22;64991;41.090;-8.118;2024-02-26T08:13:23;16.90;84.00
74368;DHT22;64991;41.090;-8.118;2024-02-26T08:18:26;16.90;84.00
74368;DHT22;64991;41.090;-8.118;2024-02-26T08:23:30;17.00;84.00
74368;DHT22;64991;41.090;-8.118;2024-02-26T08:28:35;16.90;83.70
74368;DHT22;64991;41.090;-8.118;2024-02-26T08:33:40;17.00;83.90
74368;DHT22;64991;41.090;-8.118;2024-02-26T08:38:43;17.00;83.80
74368;DHT22;64991;41.090;-8.118;2024-02-26T08:43:48;16.90;83.90
74368;DHT22;64991;41.090;-8.118;2024-02-26T08:48:52;17.00;84.30
74368;DHT22;64991;41.090;-8.118;2024-02-26T08:53:56;16.90;83.80
74368;DHT22;64991;41.090;-8.118;2024-02-26T08:59:02;16.90;83.70
74368;DHT22;64991;41.090;-8.118;2024-02-26T09:04:06;16.90;83.90
74368;DHT22;64991;41.090;-8.118;2024-02-26T09:09:09;16.90;83.60
74368;DHT22;64991;41.090;-8.118;2024-02-26T09:14:15;17.00;83.70
74368;DHT22;64991;41.090;-8.118;2024-02-26T09:19:18;16.90;83.60
74368;DHT22;64991;41.090;-8.118;2024-02-26T09:24:22;16.90;84.00
74368;DHT22;64991;41.090;-8.118;2024-02-26T09:29:27;16.90;83.80
74368;DHT22;64991;41.090;-8.118;2024-02-26T09:34:31;16.90;83.80
74368;DHT22;64991;41.090;-8.118;2024-02-26T09:39:36;16.90;83.60
74368;DHT22;64991;41.090;-8.118;2024-02-26T09:44:41;17.00;83.90
74368;DHT22;64991;41.090;-8.118;2024-02-26T09:49:46;16.90;83.70
74368;DHT22;64991;41.090;-8.118;2024-02-26T09:54:51;17.00;83.70
74368;DHT22;64991;41.090;-8.118;2024-02-26T09:59:56;17.00;83.60
74368;DHT22;64991;41.090;-8.118;2024-02-26T10:05:03;16.90;83.70
74368;DHT22;64991;41.090;-8.118;2024-02-26T10:10:08;16.90;83.80
74368;DHT22;64991;41.090;-8.118;2024-02-26T10:15:14;17.00;83.70
74368;DHT22;64991;41.090;-8.118;2024-02-26T10:20:18;16.90;83.70
74368;DHT22;64991;41.090;-8.118;2024-02-26T10:25:24;16.90;83.70
74368;DHT22;64991;41.090;-8.118;2024-02-26T10:30:29;16.90;83.70
74368;DHT22;64991;41.090;-8.118;2024-02-26T10:35:33;16.90;83.70
74368;DHT22;64991;41.090;-8.118;2024-02-26T10:40:42;17.00;83.30
74368;DHT22;64991;41.090;-8.118;2024-02-26T10:45:47;16.90;83.60
74368;DHT22;64991;41.090;-8.118;2024-02-26T10:50:51;16.90;83.60
74368;DHT22;64991;41.090;-8.118;2024-02-26T10:55:56;16.90;83.70
74368;DHT22;64991;41.090;-8.118;2024-02-26T11:01:03;16.90;83.60
74368;DHT22;64991;41.090;-8.118;2024-02-26T11:06:08;16.90;83.80
74368;DHT22;64991;41.090;-8.118;2024-02-26T11:11:12;16.90;83.50
74368;DHT22;64991;41.090;-8.118;2024-02-26T11:16:18;16.80;83.60
74368;DHT22;64991;41.090;-8.118;2024-02-26T11:21:23;16.80;83.50
74368;DHT22;64991;41.090;-8.118;2024-02-26T11:26:32;16.90;83.30
74368;DHT22;64991;41.090;-8.118;2024-02-26T11:31:38;16.80;83.40
74368;DHT22;64991;41.090;-8.118;2024-02-26T11:36:43;16.90;83.60
74368;DHT22;64991;41.090;-8.118;2024-02-26T11:41:46;16.80;83.30
74368;DHT22;64991;41.090;-8.118;2024-02-26T11:46:51;16.80;83.40
74368;DHT22;64991;41.090;-8.118;2024-02-26T11:51:55;16.80;83.40
74368;DHT22;64991;41.090;-8.118;2024-02-26T11:57:01;16.80;83.60
74368;DHT22;64991;41.090;-8.118;2024-02-26T12:02:06;16.80;83.20
74368;DHT22;64991;41.090;-8.118;2024-02-26T12:07:10;16.90;83.80
74368;DHT22;64991;41.090;-8.118;2024-02-26T12:12:17;16.90;83.60
74368;DHT22;64991;41.090;-8.118;2024-02-26T12:17:23;16.90;83.30
74368;DHT22;64991;41.090;-8.118;2024-02-26T12:22:29;16.80;83.30
74368;DHT22;64991;41.090;-8.118;2024-02-26T12:27:33;16.90;83.40
74368;DHT22;64991;41.090;-8.118;2024-02-26T12:32:38;16.80;83.50
74368;DHT22;64991;41.090;-8.118;2024-02-26T12:37:42;16.70;83.30
74368;DHT22;64991;41.090;-8.118;2024-02-26T12:42:45;16.80;83.50
74368;DHT22;64991;41.090;-8.118;2024-02-26T12:47:50;16.80;83.40
74368;DHT22;64991;41.090;-8.118;2024-02-26T12:52:54;16.80;83.30
74368;DHT22;64991;41.090;-8.118;2024-02-26T12:57:58;16.80;83.40
74368;DHT22;64991;41.090;-8.118;2024-02-26T13:03:03;16.80;83.40
74368;DHT22;64991;41.090;-8.118;2024-02-26T13:08:07;16.70;83.20
74368;DHT22;64991;41.090;-8.118;2024-02-26T13:13:11;16.80;83.40
74368;DHT22;64991;41.090;-8.118;2024-02-26T13:18:19;16.80;83.30
74368;DHT22;64991;41.090;-8.118;2024-02-26T13:23:23;16.70;83.20
74368;DHT22;64991;41.090;-8.118;2024-02-26T13:28:26;16.80;83.30
74368;DHT22;64991;41.090;-8.118;2024-02-26T13:33:31;16.80;83.10
74368;DHT22;64991;41.090;-8.118;2024-02-26T13:38:35;16.70;83.10
74368;DHT22;64991;41.090;-8.118;2024-02-26T13:43:43;16.80;83.30
74368;DHT22;64991;41.090;-8.118;2024-02-26T13:48:48;16.70;83.20
74368;DHT22;64991;41.090;-8.118;2024-02-26T13:53:51;16.70;83.20
74368;DHT22;64991;41.090;-8.118;2024-02-26T13:58:55;16.70;83.30
74368;DHT22;64991;41.090;-8.118;2024-02-26T14:04:00;16.70;83.20
74368;DHT22;64991;41.090;-8.118;2024-02-26T14:09:06;16.70;83.20
74368;DHT22;64991;41.090;-8.118;2024-02-26T14:14:11;16.70;83.20
74368;DHT22;64991;41.090;-8.118;2024-02-26T14:19:16;16.70;83.20
74368;DHT22;64991;41.090;-8.118;2024-02-26T14:24:20;16.70;83.20
74368;DHT22;64991;41.090;-8.118;2024-02-26T14:29:23;16.70;83.30
74368;DHT22;64991;41.090;-8.118;2024-02-26T14:34:28;16.70;83.30
74368;DHT22;64991;41.090;-8.118;2024-02-26T14:39:32;16.80;83.30
74368;DHT22;64991;41.090;-8.118;2024-02-26T14:44:36;16.70;83.30
74368;DHT22;64991;41.090;-8.118;2024-02-26T14:49:41;16.80;83.30
74368;DHT22;64991;41.090;-8.118;2024-02-26T14:54:45;16.70;83.30
74368;DHT22;64991;41.090;-8.118;2024-02-26T14:59:49;16.70;83.10
74368;DHT22;64991;41.090;-8.118;2024-02-26T15:04:54;16.70;83.30
74368;DHT22;64991;41.090;-8.118;2024-02-26T15:09:58;16.70;83.20
74368;DHT22;64991;41.090;-8.118;2024-02-26T15:15:02;16.60;83.10
74368;DHT22;64991;41.090;-8.118;2024-02-26T15:20:10;16.70;83.10
74368;DHT22;64991;41.090;-8.118;2024-02-26T15:25:14;16.60;83.20
74368;DHT22;64991;41.090;-8.118;2024-02-26T15:30:18;16.70;83.30
74368;DHT22;64991;41.090;-8.118;2024-02-26T15:35:23;16.70;83.30
74368;DHT22;64991;41.090;-8.118;2024-02-26T15:40:27;16.60;83.20
74368;DHT22;64991;41.090;-8.118;2024-02-26T15:45:30;16.70;83.40
74368;DHT22;64991;41.090;-8.118;2024-02-26T15:50:37;16.70;83.40
74368;DHT22;64991;41.090;-8.118;2024-02-26T15:55:43;16.70;83.10
74368;DHT22;64991;41.090;-8.118;2024-02-26T16:00:46;16.60;83.00
74368;DHT22;64991;41.090;-8.118;2024-02-26T16:05:52;16.70;82.90
74368;DHT22;64991;41.090;-8.118;2024-02-26T16:10:55;16.60;83.00
74368;DHT22;64991;41.090;-8.118;2024-02-26T16:16:01;16.70;83.00
74368;DHT22;64991;41.090;-8.118;2024-02-26T16:21:08;16.60;83.20
74368;DHT22;64991;41.090;-8.118;2024-02-26T16:26:12;16.60;83.20
74368;DHT22;64991;41.090;-8.118;2024-02-26T16:31:16;16.60;83.20
74368;DHT22;64991;41.090;-8.118;2024-02-26T16:36:21;16.70;83.10
74368;DHT22;64991;41.090;-8.118;2024-02-26T16:41:25;16.70;83.20
74368;DHT22;64991;41.090;-8.118;2024-02-26T16:46:28;16.60;83.30
74368;DHT22;64991;41.090;-8.118;2024-02-26T16:51:33;16.60;83.20
74368;DHT22;64991;41.090;-8.118;2024-02-26T16:56:40;16.60;83.20
74368;DHT22;64991;41.090;-8.118;2024-02-26T17:01:44;16.60;83.20
74368;DHT22;64991;41.090;-8.118;2024-02-26T17:06:50;16.60;83.30
74368;DHT22;64991;41.090;-8.118;2024-02-26T17:11:55;16.60;83.20
74368;DHT22;64991;41.090;-8.118;2024-02-26T17:16:59;16.70;83.30
74368;DHT22;64991;41.090;-8.118;2024-02-26T17:22:04;16.60;83.30
74368;DHT22;64991;41.090;-8.118;2024-02-26T17:27:09;16.60;83.30
74368;DHT22;64991;41.090;-8.118;2024-02-26T17:32:12;16.60;83.10
74368;DHT22;64991;41.090;-8.118;2024-02-26T17:37:18;16.60;83.20
74368;DHT22;64991;41.090;-8.118;2024-02-26T17:42:22;16.60;83.50
74368;DHT22;64991;41.090;-8.118;2024-02-26T17:47:25;16.60;83.00
74368;DHT22;64991;41.090;-8.118;2024-02-26T17:52:31;16.60;83.20
74368;DHT22;64991;41.090;-8.118;2024-02-26T17:57:38;16.60;82.90
74368;DHT22;64991;41.090;-8.118;2024-02-26T18:02:42;16.50;83.10
74368;DHT22;64991;41.090;-8.118;2024-02-26T18:07:47;16.60;83.50
74368;DHT22;64991;41.090;-8.118;2024-02-26T18:12:50;16.50;82.80
74368;DHT22;64991;41.090;-8.118;2024-02-26T18:17:55;16.50;83.30
74368;DHT22;64991;41.090;-8.118;2024-02-26T18:23:00;16.60;83.20
74368;DHT22;64991;41.090;-8.118;2024-02-26T18:28:04;16.60;83.20
74368;DHT22;64991;41.090;-8.118;2024-02-26T18:33:08;16.50;83.20
74368;DHT22;64991;41.090;-8.118;2024-02-26T18:38:13;16.60;83.20
74368;DHT22;64991;41.090;-8.118;2024-02-26T18:43:17;16.60;83.10
74368;DHT22;64991;41.090;-8.118;2024-02-26T18:48:21;16.50;83.10
74368;DHT22;64991;41.090;-8.118;2024-02-26T18:53:27;16.60;82.90
74368;DHT22;64991;41.090;-8.118;2024-02-26T18:58:31;16.60;83.10
74368;DHT22;64991;41.090;-8.118;2024-02-26T19:03:35;16.50;83.20
74368;DHT22;64991;41.090;-8.118;2024-02-26T19:08:40;16.60;83.00
74368;DHT22;64991;41.090;-8.118;2024-02-26T19:13:43;16.70;82.90
74368;DHT22;64991;41.090;-8.118;2024-02-26T19:18:47;16.60;82.80
74368;DHT22;64991;41.090;-8.118;2024-02-26T19:23:52;16.70;82.90
74368;DHT22;64991;41.090;-8.118;2024-02-26T19:28:56;16.60;82.90
74368;DHT22;64991;41.090;-8.118;2024-02-26T19:33:59;16.60;82.80
74368;DHT22;64991;41.090;-8.118;2024-02-26T19:39:05;16.70;82.90
74368;DHT22;64991;41.090;-8.118;2024-02-26T19:44:10;16.60;82.90
74368;DHT22;64991;41.090;-8.118;2024-02-26T19:49:14;16.70;82.90
74368;DHT22;64991;41.090;-8.118;2024-02-26T19:54:20;16.60;82.80
74368;DHT22;64991;41.090;-8.118;2024-02-26T19:59:23;16.60;82.70
74368;DHT22;64991;41.090;-8.118;2024-02-26T20:04:27;16.70;82.70
74368;DHT22;64991;41.090;-8.118;2024-02-26T20:09:33;16.60;82.60
74368;DHT22;64991;41.090;-8.118;2024-02-26T20:14:36;16.60;82.40
74368;DHT22;64991;41.090;-8.118;2024-02-26T20:19:41;16.60;82.30
74368;DHT22;64991;41.090;-8.118;2024-02-26T20:24:46;16.50;82.50
74368;DHT22;64991;41.090;-8.118;2024-02-26T20:29:50;16.60;82.50
74368;DHT22;64991;41.090;-8.118;2024-02-26T20:34:57;16.60;82.50
74368;DHT22;64991;41.090;-8.118;2024-02-26T20:40:03;16.70;82.40
74368;DHT22;64991;41.090;-8.118;2024-02-26T20:45:09;16.70;82.70
74368;DHT22;64991;41.090;-8.118;2024-02-26T20:50:13;16.60;82.60
74368;DHT22;64991;41.090;-8.118;2024-02-26T20:55:19;16.60;82.40
74368;DHT22;64991;41.090;-8.118;2024-02-26T21:00:23;16.50;82.50
74368;DHT22;64991;41.090;-8.118;2024-02-26T21:05:27;16.60;82.60
74368;DHT22;64991;41.090;-8.118;2024-02-26T21:10:32;16.60;82.30
74368;DHT22;64991;41.090;-8.118;2024-02-26T21:15:36;16.70;82.40
74368;DHT22;64991;41.090;-8.118;2024-02-26T21:20:40;16.60;82.30
74368;DHT22;64991;41.090;-8.118;2024-02-26T21:25:45;16.60;82.50
74368;DHT22;64991;41.090;-8.118;2024-02-26T21:30:49;16.60;82.20
74368;DHT22;64991;41.090;-8.118;2024-02-26T21:35:56;16.60;82.20
74368;DHT22;64991;41.090;-8.118;2024-02-26T21:41:01;16.50;82.10
74368;DHT22;64991;41.090;-8.118;2024-02-26T21:46:05;16.60;82.30
74368;DHT22;64991;41.090;-8.118;2024-02-26T21:51:08;16.50;82.40
74368;DHT22;64991;41.090;-8.118;2024-02-26T21:56:13;16.60;82.20
74368;DHT22;64991;41.090;-8.118;2024-02-26T22:01:17;16.50;81.90
74368;DHT22;64991;41.090;-8.118;2024-02-26T22:06:21;16.60;82.10
74368;DHT22;64991;41.090;-8.118;2024-02-26T22:11:26;16.50;82.00
74368;DHT22;64991;41.090;-8.118;2024-02-26T22:16:30;16.50;82.00
74368;DHT22;64991;41.090;-8.118;2024-02-26T22:21:34;16.50;82.00
74368;DHT22;64991;41.090;-8.118;2024-02-26T22:26:39;16.60;82.00
74368;DHT22;64991;41.090;-8.118;2024-02-26T22:31:45;16.50;81.90
74368;DHT22;64991;41.090;-8.118;2024-02-26T22:36:54;16.50;81.80
74368;DHT22;64991;41.090;-8.118;2024-02-26T22:41:59;16.50;81.70
74368;DHT22;64991;41.090;-8.118;2024-02-26T22:47:03;16.50;82.10
74368;DHT22;64991;41.090;-8.118;2024-02-26T22:52:07;16.40;81.80
74368;DHT22;64991;41.090;-8.118;2024-02-26T22:57:12;16.40;81.80
74368;DHT22;64991;41.090;-8.118;2024-02-26T23:02:17;16.50;81.80
74368;DHT22;64991;41.090;-8.118;2024-02-26T23:07:20;16.40;81.70
74368;DHT22;64991;41.090;-8.118;2024-02-26T23:12:25;16.60;82.00
74368;DHT22;64991;41.090;-8.118;2024-02-26T23:17:29;16.50;81.80
74368;DHT22;64991;41.090;-8.118;2024-02-26T23:22:35;16.40;82.10
74368;DHT22;64991;41.090;-8.118;2024-02-26T23:27:41;16.40;81.80
74368;DHT22;64991;41.090;-8.118;2024-02-26T23:32:45;16.40;81.90
74368;DHT22;64991;41.090;-8.118;2024-02-26T23:37:49;16.50;81.90
74368;DHT22;64991;41.090;-8.118;2024-02-26T23:42:54;16.40;81.80
74368;DHT22;64991;41.090;-8.118;2024-02-26T23:47:58;16.40;81.60
74368;DHT22;64991;41.090;-8.118;2024-02-26T23:53:02;16.40;81.70
74368;DHT22;64991;41.090;-8.118;2024-02-26T23:58:07;16.40;81.70
